»·PEaware :: AAL235 KLAX-KYKM

AAL235 :: KLAX-KYKM

FLIGHT INFORMATION

Flight Status: Arrived
Operator:
American Airlines
More flights by this operator :: More flights under this callsign
Pilot: Max W. (2591)
Aircraft: BOEING 777-200
(B772)
More flights by this aircraft type
Origin: KLAX Los Angeles Intl
United States
Destination: KYKM Yakima Air Term/Mcallister
United States
More flights between these airports :: More routes between these airports
Route: +LADYJ1 CSTRO DUCKE LMT DIR KYKM
File this flight plan on PilotEdge
Remarks:
Altitude:
(Current/Filed)
35,000ft
Speed:
(Current/Filed)
450kts
Departed: 04-Jun-17 06:12 PM
Arrived: 04-Jun-17 08:05 PM
Distance/Time
Traveled:
764nm/1:53
Distance/Time
To Go:
Arrived

Flight Plot

Page will automatically refresh every two minutes.

Flight plan parsing failed; only flown route is shown


Map Options




Map Legend


Flown Route
Filed Route
Departure Airport
Arrival Airport
Navaid (VOR, NDB)
Fix

Horizontal Profiles

Position Reports

Time Latitude Longitude Heading Altitude Ground
Speed
04-Jun-17 17:47 33.940608 -118.405102 82 139ft 0kts
04-Jun-17 17:48 33.940608 -118.405102 82 139ft 0kts
04-Jun-17 17:49 33.940608 -118.405102 82 139ft 0kts
04-Jun-17 17:50 33.940608 -118.405102 82 139ft 0kts
04-Jun-17 17:51 33.940608 -118.405102 82 139ft 0kts
04-Jun-17 17:52 33.940608 -118.405102 82 140ft 0kts
04-Jun-17 17:53 33.940608 -118.405102 82 140ft 0kts
04-Jun-17 17:54 33.940608 -118.405102 82 140ft 0kts
04-Jun-17 17:55 33.940608 -118.405102 82 140ft 0kts
04-Jun-17 17:56 33.940608 -118.405102 82 140ft 0kts
04-Jun-17 17:57 33.940608 -118.405102 82 140ft 0kts
04-Jun-17 17:58 33.940608 -118.405102 82 140ft 0kts
04-Jun-17 17:59 33.940608 -118.405102 82 140ft 0kts
04-Jun-17 18:00 33.940608 -118.405102 82 140ft 0kts
04-Jun-17 18:01 33.940608 -118.405102 82 140ft 0kts
04-Jun-17 18:02 33.940608 -118.405102 82 140ft 0kts
04-Jun-17 18:03 33.940608 -118.405102 82 140ft 0kts
04-Jun-17 18:04 33.940608 -118.405102 82 140ft 0kts
04-Jun-17 18:05 33.940608 -118.405102 82 140ft 0kts
04-Jun-17 18:06 33.940608 -118.405102 82 140ft 0kts
04-Jun-17 18:07 33.940579 -118.405385 82 140ft 2kts
04-Jun-17 18:08 33.940541 -118.405760 82 140ft 0kts
04-Jun-17 18:09 33.940541 -118.405759 82 140ft 0kts
04-Jun-17 18:10 33.939444 -118.405461 173 140ft 5kts
04-Jun-17 18:11 33.939980 -118.396219 82 140ft 30kts
04-Jun-17 18:12 33.940872 -118.386888 83 140ft 25kts
04-Jun-17 18:13 33.940142 -118.380251 179 140ft 17kts
04-Jun-17 18:14 33.936245 -118.414740 262 968ft 205kts
04-Jun-17 18:15 33.928768 -118.494901 264 4422ft 272kts
04-Jun-17 18:16 33.921287 -118.586633 265 8009ft 281kts
04-Jun-17 18:17 33.964162 -118.659830 325 7997ft 289kts
04-Jun-17 18:18 34.043113 -118.675213 0 7988ft 294kts
04-Jun-17 18:19 34.125656 -118.661112 10 10168ft 306kts
04-Jun-17 18:20 34.221131 -118.640473 1 12869ft 400kts
04-Jun-17 18:21 34.331795 -118.651446 344 17588ft 406kts
04-Jun-17 18:22 34.446786 -118.678359 346 21215ft 434kts
04-Jun-17 18:23 34.569170 -118.701936 346 24538ft 454kts
04-Jun-17 18:24 34.695870 -118.729498 338 27705ft 470kts
04-Jun-17 18:25 34.815498 -118.796483 325 30639ft 481kts
04-Jun-17 18:26 34.933109 -118.878206 324 33527ft 484kts
04-Jun-17 18:27 35.049180 -118.958303 324 36304ft 476kts
04-Jun-17 18:28 35.163523 -119.037261 323 38529ft 471kts
04-Jun-17 18:29 35.276832 -119.115739 323 39889ft 467kts
04-Jun-17 18:30 35.391132 -119.195541 323 39877ft 481kts
04-Jun-17 18:31 35.515162 -119.261821 337 39875ft 495kts
04-Jun-17 18:32 35.648245 -119.304838 338 39878ft 495kts
04-Jun-17 18:33 35.781367 -119.350110 337 39880ft 495kts
04-Jun-17 18:34 35.914001 -119.395653 337 39882ft 495kts
04-Jun-17 18:35 36.046513 -119.441566 337 39884ft 495kts
04-Jun-17 18:36 36.178976 -119.487659 337 39885ft 495kts
04-Jun-17 18:37 36.311833 -119.534057 337 39886ft 495kts
04-Jun-17 18:38 36.444310 -119.580487 337 39888ft 495kts
04-Jun-17 18:39 36.576641 -119.627030 337 39898ft 495kts
04-Jun-17 18:40 36.709712 -119.674002 337 39901ft 496kts
04-Jun-17 18:41 36.842278 -119.720964 337 39900ft 496kts
04-Jun-17 18:42 36.974726 -119.768052 337 39906ft 495kts
04-Jun-17 18:43 37.107035 -119.815264 337 39919ft 494kts
04-Jun-17 18:44 37.239571 -119.862727 338 39927ft 494kts
04-Jun-17 18:45 37.371653 -119.910202 338 39940ft 493kts
04-Jun-17 18:46 37.503398 -119.957731 338 39984ft 493kts
04-Jun-17 18:47 37.635024 -120.005270 338 39995ft 492kts
04-Jun-17 18:48 37.766748 -120.053196 338 40000ft 491kts
04-Jun-17 18:49 37.898014 -120.101145 338 40021ft 491kts
04-Jun-17 18:50 38.029476 -120.148444 338 40032ft 491kts
04-Jun-17 18:51 38.160838 -120.195938 338 40047ft 491kts
04-Jun-17 18:52 38.292702 -120.243552 338 40057ft 491kts
04-Jun-17 18:53 38.424128 -120.291164 338 40074ft 491kts
04-Jun-17 18:54 38.555241 -120.338950 338 40092ft 490kts
04-Jun-17 18:55 38.686101 -120.386841 338 40098ft 489kts
04-Jun-17 18:56 38.817312 -120.434644 340 40111ft 491kts
04-Jun-17 18:57 38.954467 -120.452143 352 40142ft 500kts
04-Jun-17 18:58 39.093613 -120.454011 354 40165ft 501kts
04-Jun-17 18:59 39.232908 -120.455463 353 40177ft 501kts
04-Jun-17 19:00 39.372680 -120.456968 354 40176ft 500kts
04-Jun-17 19:01 39.511814 -120.458471 353 40174ft 501kts
04-Jun-17 19:02 39.651158 -120.459985 353 40170ft 502kts
04-Jun-17 19:03 39.791151 -120.461517 353 40152ft 502kts
04-Jun-17 19:04 39.930613 -120.463052 353 40129ft 502kts
04-Jun-17 19:05 40.070162 -120.464582 353 40104ft 501kts
04-Jun-17 19:06 40.209591 -120.466121 353 40089ft 501kts
04-Jun-17 19:07 40.349449 -120.467673 353 40081ft 502kts
04-Jun-17 19:08 40.488871 -120.469227 353 40081ft 501kts
04-Jun-17 19:09 40.628195 -120.470787 353 40091ft 501kts
04-Jun-17 19:10 40.744303 -120.472096 353 40093ft 501kts
04-Jun-17 19:11 40.907351 -120.473963 353 40096ft 502kts
04-Jun-17 19:12 41.047006 -120.475552 353 40099ft 502kts
04-Jun-17 19:13 41.186651 -120.477142 353 40100ft 503kts
04-Jun-17 19:14 41.326553 -120.478741 353 40100ft 503kts
04-Jun-17 19:15 41.467060 -120.480321 353 40100ft 505kts
04-Jun-17 19:16 41.583948 -120.481661 353 40101ft 505kts
04-Jun-17 19:17 41.724319 -120.483315 353 40107ft 506kts
04-Jun-17 19:18 41.865002 -120.484956 353 40117ft 506kts
04-Jun-17 19:19 42.006142 -120.486605 353 40126ft 506kts
04-Jun-17 19:20 42.170639 -120.488538 353 40129ft 507kts
04-Jun-17 19:21 42.288147 -120.489921 353 40129ft 507kts
04-Jun-17 19:22 42.453132 -120.491861 354 40126ft 507kts
04-Jun-17 19:23 42.570585 -120.493234 354 40123ft 507kts
04-Jun-17 19:24 42.711636 -120.494917 354 40122ft 508kts
04-Jun-17 19:25 42.852974 -120.496621 354 40120ft 508kts
04-Jun-17 19:26 42.994959 -120.498320 354 40126ft 509kts
04-Jun-17 19:27 43.136653 -120.500033 354 40125ft 510kts
04-Jun-17 19:28 43.278677 -120.501759 354 40123ft 511kts
04-Jun-17 19:29 43.420985 -120.503497 354 40123ft 513kts
04-Jun-17 19:30 43.564082 -120.505253 354 40122ft 514kts
04-Jun-17 19:31 43.707143 -120.507017 354 40131ft 515kts
04-Jun-17 19:32 43.850236 -120.508790 354 40125ft 515kts
04-Jun-17 19:33 43.993529 -120.510575 355 40143ft 515kts
04-Jun-17 19:34 44.137550 -120.512376 355 40141ft 517kts
04-Jun-17 19:35 44.281133 -120.514180 355 40145ft 517kts
04-Jun-17 19:36 44.420791 -120.515944 354 38747ft 495kts
04-Jun-17 19:37 44.558676 -120.517694 354 35957ft 495kts
04-Jun-17 19:38 44.696271 -120.519462 355 33059ft 493kts
04-Jun-17 19:39 44.830897 -120.521168 354 30525ft 474kts
04-Jun-17 19:40 44.963128 -120.522883 354 27018ft 471kts
04-Jun-17 19:41 45.092267 -120.524549 355 25395ft 455kts
04-Jun-17 19:42 45.217860 -120.526181 355 24207ft 450kts
04-Jun-17 19:43 45.343254 -120.527812 355 24116ft 452kts
04-Jun-17 19:44 45.468373 -120.529452 355 23236ft 445kts
04-Jun-17 19:45 45.587155 -120.490575 23 20530ft 437kts
04-Jun-17 19:46 45.684156 -120.419440 24 18785ft 356kts
04-Jun-17 19:47 45.768367 -120.356688 24 16290ft 331kts
04-Jun-17 19:48 45.848148 -120.297089 24 13696ft 315kts
04-Jun-17 19:49 45.924393 -120.239940 24 11175ft 302kts
04-Jun-17 19:50 45.997691 -120.184881 25 10076ft 291kts
04-Jun-17 19:51 46.067952 -120.132366 25 9990ft 268kts
04-Jun-17 19:52 46.131597 -120.084207 25 9944ft 257kts
04-Jun-17 19:53 46.196945 -120.034560 26 9465ft 258kts
04-Jun-17 19:54 46.258395 -119.987815 25 8129ft 245kts
04-Jun-17 19:55 46.320186 -119.999686 314 7469ft 256kts
04-Jun-17 19:56 46.363973 -120.080475 308 6500ft 247kts
04-Jun-17 19:57 46.404364 -120.151615 309 6130ft 214kts
04-Jun-17 19:58 46.441666 -120.216878 309 5112ft 209kts
04-Jun-17 19:59 46.478133 -120.281000 308 4139ft 204kts
04-Jun-17 20:00 46.512790 -120.342076 307 3608ft 175kts
04-Jun-17 20:01 46.534348 -120.400562 289 2975ft 161kts
04-Jun-17 20:02 46.547232 -120.453918 303 2139ft 152kts
04-Jun-17 20:03 46.572646 -120.424892 112 2316ft 207kts
04-Jun-17 20:04 46.541307 -120.446760 289 2153ft 173kts
04-Jun-17 20:05 46.557925 -120.501771 294 1558ft 135kts
04-Jun-17 20:06 46.569525 -120.547476 291 1109ft 41kts
04-Jun-17 20:07 46.569278 -120.543383 104 1108ft 19kts
04-Jun-17 20:08 46.569337 -120.539344 193 1108ft 0kts
04-Jun-17 20:09 46.569337 -120.539344 193 1108ft 0kts
04-Jun-17 20:10 46.569337 -120.539344 193 1108ft 0kts
04-Jun-17 20:11 46.569337 -120.539344 193 1108ft 0kts
04-Jun-17 20:12 46.569337 -120.539344 193 1108ft 0kts
04-Jun-17 20:13 46.569337 -120.539344 193 1108ft 0kts
04-Jun-17 20:14 46.569337 -120.539344 193 1108ft 0kts
04-Jun-17 20:15 46.569337 -120.539344 193 1108ft 0kts
04-Jun-17 20:16 46.569337 -120.539344 193 1108ft 0kts
04-Jun-17 20:17 46.569337 -120.539344 193 1108ft 0kts
04-Jun-17 20:18 46.569337 -120.539344 193 1108ft 0kts

Navigation Log

Ident Type
Flight plan parsing failed, navigation log unavailable